createdAt,value
2017-12-24T00:00:12.217Z,0.7
2017-12-24T00:01:16.551Z,0.7
2017-12-24T00:02:20.301Z,0.8
2017-12-24T00:03:23.873Z,0.8
2017-12-24T00:04:28.938Z,0.7
2017-12-24T00:05:32.973Z,0.7
2017-12-24T00:06:37.607Z,0.7
2017-12-24T00:07:45.432Z,0.7
2017-12-24T00:08:50.565Z,0.7
2017-12-24T00:09:54.344Z,0.7
2017-12-24T00:10:59.266Z,0.7
2017-12-24T00:12:04.058Z,0.7
2017-12-24T00:13:07.528Z,0.7
2017-12-24T00:14:11.150Z,0.6
2017-12-24T00:15:15.312Z,0.6
2017-12-24T00:16:18.712Z,0.6
2017-12-24T00:17:23.125Z,0.6
2017-12-24T00:18:30.426Z,0.6
2017-12-24T00:19:34.146Z,0.7
2017-12-24T00:20:37.754Z,0.7
2017-12-24T00:21:41.349Z,0.7
2017-12-24T00:22:45.487Z,0.7
2017-12-24T00:23:49.759Z,0.7
2017-12-24T00:24:54.061Z,0.7
2017-12-24T00:25:57.451Z,0.6
2017-12-24T00:27:01.039Z,0.7
2017-12-24T00:28:04.467Z,0.6
2017-12-24T00:29:11.966Z,0.6
2017-12-24T00:30:15.608Z,0.6
2017-12-24T00:31:18.936Z,0.6
2017-12-24T00:32:22.450Z,0.6
2017-12-24T00:33:25.832Z,0.6
2017-12-24T00:34:29.185Z,0.7
2017-12-24T00:35:32.693Z,0.7
2017-12-24T00:36:36.479Z,0.6
2017-12-24T00:37:40.697Z,0.6
2017-12-24T00:38:44.249Z,0.6
2017-12-24T00:39:51.585Z,0.6
2017-12-24T00:40:55.203Z,0.6
2017-12-24T00:41:58.735Z,0.6
2017-12-24T00:43:03.005Z,0.6
2017-12-24T00:44:06.655Z,0.5
2017-12-24T00:45:10.149Z,0.5
2017-12-24T00:46:13.738Z,0.5
2017-12-24T00:47:17.153Z,0.5
2017-12-24T00:48:21.272Z,0.5
2017-12-24T00:49:24.916Z,0.5
2017-12-24T00:50:32.037Z,0.5
2017-12-24T00:51:36.196Z,0.5
2017-12-24T00:52:40.117Z,0.5
2017-12-24T00:53:43.725Z,0.5
2017-12-24T00:54:47.991Z,0.5
2017-12-24T00:55:51.396Z,0.6
2017-12-24T00:56:54.776Z,0.6
2017-12-24T00:57:58.948Z,0.6
2017-12-24T00:59:02.398Z,0.6
2017-12-24T01:00:05.904Z,0.6
2017-12-24T01:01:13.025Z,0.6
2017-12-24T01:02:17.157Z,0.6
2017-12-24T01:03:20.689Z,0.7
2017-12-24T01:04:24.117Z,0.7
2017-12-24T01:05:27.598Z,0.8
2017-12-24T01:06:31.073Z,0.8
2017-12-24T01:07:34.604Z,0.8
2017-12-24T01:08:38.892Z,0.8
2017-12-24T01:09:42.345Z,0.8
2017-12-24T01:10:45.844Z,0.8
2017-12-24T01:11:53.692Z,0.8
2017-12-24T01:12:57.869Z,0.8
2017-12-24T01:14:01.566Z,0.9
2017-12-24T01:15:05.672Z,0.9
2017-12-24T01:16:09.845Z,0.9
2017-12-24T01:17:13.225Z,0.9
2017-12-24T01:18:17.351Z,0.9
2017-12-24T01:19:20.717Z,0.9
2017-12-24T01:20:24.249Z,0.9
2017-12-24T01:21:28.453Z,0.9
2017-12-24T01:22:35.662Z,0.9
2017-12-24T01:23:39.022Z,0.9
2017-12-24T01:24:42.470Z,0.9
2017-12-24T01:25:46.417Z,0.9
2017-12-24T01:26:51.357Z,0.9
2017-12-24T01:27:55.439Z,0.9
2017-12-24T01:28:58.908Z,0.9
2017-12-24T01:30:03.055Z,0.9
2017-12-24T01:31:06.622Z,0.9
2017-12-24T01:32:10.697Z,0.8
2017-12-24T01:33:17.924Z,0.8
2017-12-24T01:34:21.523Z,0.8
2017-12-24T01:35:25.459Z,0.8
2017-12-24T01:36:30.580Z,0.8
2017-12-24T01:37:35.141Z,0.7
2017-12-24T01:38:39.421Z,0.8
2017-12-24T01:39:43.485Z,0.8
2017-12-24T01:40:48.003Z,0.8
2017-12-24T01:41:53.501Z,0.7
2017-12-24T01:42:59.557Z,0.7
2017-12-24T01:44:07.105Z,0.7
2017-12-24T01:45:11.345Z,0.7
2017-12-24T01:46:14.849Z,0.7
2017-12-24T01:47:19.227Z,0.6
2017-12-24T01:48:22.633Z,0.6
2017-12-24T01:49:26.136Z,0.6
2017-12-24T01:50:30.313Z,0.6
2017-12-24T01:51:33.823Z,0.6
2017-12-24T01:52:38.498Z,0.6
2017-12-24T01:53:41.876Z,0.6
2017-12-24T01:54:49.108Z,0.6
2017-12-24T01:55:52.595Z,0.6
2017-12-24T01:56:56.005Z,0.5
2017-12-24T01:57:59.406Z,0.6
2017-12-24T01:59:03.514Z,0.6
2017-12-24T02:00:06.988Z,0.6
2017-12-24T02:01:10.292Z,0.5
2017-12-24T02:02:14.033Z,0.5
2017-12-24T02:03:17.580Z,0.5
2017-12-24T02:04:21.195Z,0.5
2017-12-24T02:05:28.831Z,0.5
2017-12-24T02:06:32.391Z,0.5
2017-12-24T02:07:36.213Z,0.5
2017-12-24T02:08:39.658Z,0.5
2017-12-24T02:09:43.181Z,0.5
2017-12-24T02:10:46.515Z,0.5
2017-12-24T02:11:49.909Z,0.5
2017-12-24T02:12:53.677Z,0.5
2017-12-24T02:13:57.802Z,0.5
2017-12-24T02:15:01.335Z,0.5
2017-12-24T02:16:08.123Z,0.5
2017-12-24T02:17:11.667Z,0.4
2017-12-24T02:18:16.458Z,0.5
2017-12-24T02:19:19.999Z,0.5
2017-12-24T02:20:23.465Z,0.4
2017-12-24T02:21:26.980Z,0.4
2017-12-24T02:22:30.547Z,0.4
2017-12-24T02:23:34.006Z,0.4
2017-12-24T02:24:37.388Z,0.4
2017-12-24T02:25:40.959Z,0.4
2017-12-24T02:26:47.890Z,0.4
2017-12-24T02:27:51.340Z,0.4
2017-12-24T02:28:55.916Z,0.4
2017-12-24T02:29:59.366Z,0.4
2017-12-24T02:31:03.651Z,0.4
2017-12-24T02:32:07.105Z,0.4
2017-12-24T02:33:11.361Z,0.4
2017-12-24T02:34:15.882Z,0.4
2017-12-24T02:35:19.385Z,0.5
2017-12-24T02:36:22.777Z,0.5
2017-12-24T02:37:29.965Z,0.4
2017-12-24T02:38:33.399Z,0.4
2017-12-24T02:39:37.808Z,0.4
2017-12-24T02:40:41.414Z,0.4
2017-12-24T02:41:44.833Z,0.5
2017-12-24T02:42:48.397Z,0.5
2017-12-24T02:43:51.849Z,0.5
2017-12-24T02:44:55.512Z,0.5
2017-12-24T02:46:00.281Z,0.5
2017-12-24T02:47:03.776Z,0.5
2017-12-24T02:48:10.674Z,0.4
2017-12-24T02:49:14.102Z,0.4
2017-12-24T02:50:18.623Z,0.4
2017-12-24T02:51:22.093Z,0.4
2017-12-24T02:52:26.257Z,0.4
2017-12-24T02:53:31.793Z,0.3
2017-12-24T02:54:35.882Z,0.3
2017-12-24T02:55:40.027Z,0.3
2017-12-24T02:56:44.020Z,0.3
2017-12-24T02:57:48.239Z,0.3
2017-12-24T02:58:55.730Z,0.2
2017-12-24T02:59:59.163Z,0.2
2017-12-24T03:01:03.619Z,0.2
2017-12-24T03:02:07.749Z,0.2
2017-12-24T03:03:11.266Z,0.3
2017-12-24T03:04:15.284Z,0.2
2017-12-24T03:05:18.574Z,0.2
2017-12-24T03:06:22.312Z,0.2
2017-12-24T03:07:26.520Z,0.2
2017-12-24T03:08:30.264Z,0.1
2017-12-24T03:09:40.130Z,0.1
2017-12-24T03:10:44.175Z,0.1
2017-12-24T03:11:49.031Z,0.1
2017-12-24T03:12:53.002Z,0.1
2017-12-24T03:13:56.390Z,0.2
2017-12-24T03:15:00.110Z,0.1
2017-12-24T03:16:03.719Z,0.1
2017-12-24T03:17:07.328Z,0.1
2017-12-24T03:18:11.414Z,0.1
2017-12-24T03:19:15.390Z,0.1
2017-12-24T03:20:22.978Z,0.1
2017-12-24T03:21:26.382Z,0.1
2017-12-24T03:22:30.498Z,0.1
2017-12-24T03:23:33.924Z,0.1
2017-12-24T03:24:37.409Z,0.1
2017-12-24T03:25:40.973Z,0.1
2017-12-24T03:26:45.266Z,0.1
2017-12-24T03:27:49.028Z,0.1
2017-12-24T03:28:52.426Z,0.1
2017-12-24T03:29:56.000Z,0.1
2017-12-24T03:31:02.820Z,0.1
2017-12-24T03:32:06.894Z,0.1
2017-12-24T03:33:11.299Z,0.1
2017-12-24T03:34:14.703Z,0.1
2017-12-24T03:35:18.107Z,0.1
2017-12-24T03:36:21.576Z,0.1
2017-12-24T03:37:25.053Z,0.1
2017-12-24T03:38:28.745Z,0.1
2017-12-24T03:39:32.269Z,0.1
2017-12-24T03:40:35.765Z,0
2017-12-24T03:41:42.729Z,0.1
2017-12-24T03:42:46.255Z,0
2017-12-24T03:43:49.655Z,0
2017-12-24T03:44:53.189Z,0
2017-12-24T03:45:56.744Z,0
2017-12-24T03:47:00.300Z,0
2017-12-24T03:48:03.663Z,0
2017-12-24T03:49:07.459Z,0
2017-12-24T03:50:11.072Z,0
2017-12-24T03:51:14.593Z,-0.1
2017-12-24T03:52:21.744Z,-0.1
2017-12-24T03:53:25.188Z,-0.1
2017-12-24T03:54:29.333Z,-0.2
2017-12-24T03:55:32.844Z,-0.2
2017-12-24T03:56:36.878Z,-0.2
2017-12-24T03:57:40.341Z,-0.2
2017-12-24T03:58:43.832Z,-0.2
2017-12-24T03:59:47.835Z,-0.2
2017-12-24T04:00:51.362Z,-0.2
2017-12-24T04:01:54.910Z,-0.2
2017-12-24T04:03:02.741Z,-0.2
2017-12-24T04:04:06.359Z,-0.2
2017-12-24T04:05:10.102Z,-0.1
2017-12-24T04:06:13.587Z,-0.1
2017-12-24T04:07:18.084Z,0
2017-12-24T04:08:21.546Z,-0.1
2017-12-24T04:09:25.212Z,0
2017-12-24T04:10:28.552Z,0
2017-12-24T04:11:31.956Z,0
2017-12-24T04:12:36.165Z,0
2017-12-24T04:13:43.132Z,0
2017-12-24T04:14:46.455Z,0
2017-12-24T04:15:50.313Z,0
2017-12-24T04:16:53.812Z,0.1
2017-12-24T04:17:57.249Z,0.1
2017-12-24T04:19:00.739Z,0
2017-12-24T04:20:04.126Z,0
2017-12-24T04:21:07.623Z,0
2017-12-24T04:22:10.976Z,0
2017-12-24T04:23:14.470Z,0
2017-12-24T04:24:21.734Z,0
2017-12-24T04:25:25.202Z,-0.1
2017-12-24T04:26:29.581Z,-0.1
2017-12-24T04:27:33.222Z,-0.1
2017-12-24T04:28:36.648Z,-0.1
2017-12-24T04:29:40.976Z,-0.1
2017-12-24T04:30:44.498Z,-0.1
2017-12-24T04:31:48.977Z,-0.1
2017-12-24T04:32:52.529Z,-0.1
2017-12-24T04:33:56.075Z,-0.2
2017-12-24T04:35:03.077Z,-0.2
2017-12-24T04:36:06.740Z,-0.2
2017-12-24T04:37:10.537Z,-0.3
2017-12-24T04:38:14.007Z,-0.2
2017-12-24T04:39:17.535Z,-0.2
2017-12-24T04:40:20.925Z,-0.2
2017-12-24T04:41:25.015Z,-0.2
2017-12-24T04:42:29.348Z,-0.2
2017-12-24T04:43:32.832Z,-0.2
2017-12-24T04:44:36.306Z,-0.2
2017-12-24T04:45:44.394Z,-0.2
2017-12-24T04:46:49.321Z,-0.2
2017-12-24T04:47:54.431Z,-0.3
2017-12-24T04:48:58.602Z,-0.2
2017-12-24T04:50:02.570Z,-0.3
2017-12-24T04:51:06.692Z,-0.3
2017-12-24T04:52:10.100Z,-0.3
2017-12-24T04:53:13.832Z,-0.3
2017-12-24T04:54:17.272Z,-0.3
2017-12-24T04:55:21.152Z,-0.3
2017-12-24T04:56:28.461Z,-0.3
2017-12-24T04:57:32.105Z,-0.3
2017-12-24T04:58:36.438Z,-0.3
2017-12-24T04:59:41.800Z,-0.3
2017-12-24T05:00:45.482Z,-0.3
2017-12-24T05:01:48.935Z,-0.3
2017-12-24T05:02:52.407Z,-0.3
2017-12-24T05:03:55.862Z,-0.3
2017-12-24T05:04:59.470Z,-0.3
2017-12-24T05:06:03.604Z,-0.3
2017-12-24T05:07:11.547Z,-0.3
2017-12-24T05:08:16.096Z,-0.3
2017-12-24T05:09:19.589Z,-0.3
2017-12-24T05:10:23.096Z,-0.3
2017-12-24T05:11:26.537Z,-0.3
2017-12-24T05:12:30.110Z,-0.3
2017-12-24T05:13:33.515Z,-0.3
2017-12-24T05:14:37.247Z,-0.3
2017-12-24T05:15:41.186Z,-0.3
2017-12-24T05:16:44.799Z,-0.3
2017-12-24T05:17:52.592Z,-0.3
2017-12-24T05:18:56.052Z,-0.3
2017-12-24T05:20:00.285Z,-0.3
2017-12-24T05:21:03.808Z,-0.4
2017-12-24T05:22:07.387Z,-0.4
2017-12-24T05:23:10.891Z,-0.4
2017-12-24T05:24:14.422Z,-0.4
2017-12-24T05:25:17.865Z,-0.4
2017-12-24T05:26:21.302Z,-0.4
2017-12-24T05:27:24.789Z,-0.4
2017-12-24T05:28:31.726Z,-0.5
2017-12-24T05:29:35.325Z,-0.5
2017-12-24T05:30:39.245Z,-0.5
2017-12-24T05:31:42.724Z,-0.4
2017-12-24T05:32:46.309Z,-0.4
2017-12-24T05:33:49.689Z,-0.4
2017-12-24T05:34:53.272Z,-0.4
2017-12-24T05:35:56.677Z,-0.5
2017-12-24T05:37:00.265Z,-0.5
2017-12-24T05:38:03.904Z,-0.5
2017-12-24T05:39:10.874Z,-0.6
2017-12-24T05:40:14.246Z,-0.6
2017-12-24T05:41:18.054Z,-0.6
2017-12-24T05:42:21.539Z,-0.6
2017-12-24T05:43:25.018Z,-0.6
2017-12-24T05:44:28.504Z,-0.6
2017-12-24T05:45:31.878Z,-0.6
2017-12-24T05:46:35.811Z,-0.5
2017-12-24T05:47:40.198Z,-0.5
2017-12-24T05:48:44.305Z,-0.6
2017-12-24T05:49:50.791Z,-0.6
2017-12-24T05:50:54.429Z,-0.7
2017-12-24T05:51:57.866Z,-0.7
2017-12-24T05:53:02.322Z,-0.6
2017-12-24T05:54:05.644Z,-0.6
2017-12-24T05:55:09.204Z,-0.6
2017-12-24T05:56:13.764Z,-0.7
2017-12-24T05:57:18.253Z,-0.7
2017-12-24T05:58:21.641Z,-0.6
2017-12-24T05:59:26.519Z,-0.6
2017-12-24T06:00:33.613Z,-0.7
2017-12-24T06:01:38.786Z,-0.7
2017-12-24T06:02:42.303Z,-0.7
2017-12-24T06:03:46.726Z,-0.6
2017-12-24T06:04:50.209Z,-0.6
2017-12-24T06:05:53.889Z,-0.6
2017-12-24T06:06:59.113Z,-0.6
2017-12-24T06:08:03.437Z,-0.6
2017-12-24T06:09:06.769Z,-0.6
2017-12-24T06:10:10.219Z,-0.6
2017-12-24T06:11:18.734Z,-0.6
2017-12-24T06:12:22.808Z,-0.7
2017-12-24T06:13:27.122Z,-0.6
2017-12-24T06:14:30.699Z,-0.6
2017-12-24T06:15:35.569Z,-0.6
2017-12-24T06:16:39.031Z,-0.6
2017-12-24T06:17:42.460Z,-0.7
2017-12-24T06:18:45.852Z,-0.6
2017-12-24T06:19:49.168Z,-0.6
2017-12-24T06:20:53.655Z,-0.6
2017-12-24T06:22:02.050Z,-0.6
2017-12-24T06:23:05.446Z,-0.6
2017-12-24T06:24:08.931Z,-0.6
2017-12-24T06:25:12.316Z,-0.6
2017-12-24T06:26:16.461Z,-0.6
2017-12-24T06:27:20.057Z,-0.6
2017-12-24T06:28:23.611Z,-0.5
2017-12-24T06:29:30.849Z,-0.6
2017-12-24T06:30:34.989Z,-0.6
2017-12-24T06:31:40.746Z,-0.6
2017-12-24T06:32:48.496Z,-0.6
2017-12-24T06:33:52.588Z,-0.6
2017-12-24T06:34:56.973Z,-0.6
2017-12-24T06:36:01.322Z,-0.6
2017-12-24T06:37:05.443Z,-0.6
2017-12-24T06:38:09.653Z,-0.6
2017-12-24T06:39:14.678Z,-0.6
2017-12-24T06:40:19.017Z,-0.5
2017-12-24T06:41:22.626Z,-0.5
2017-12-24T06:42:26.348Z,-0.5
2017-12-24T06:43:34.152Z,-0.6
2017-12-24T06:44:37.685Z,-0.6
2017-12-24T06:45:41.441Z,-0.6
2017-12-24T06:46:44.970Z,-0.7
2017-12-24T06:47:48.371Z,-0.7
2017-12-24T06:48:53.133Z,-0.6
2017-12-24T06:49:56.581Z,-0.7
2017-12-24T06:51:00.323Z,-0.7
2017-12-24T06:52:03.866Z,-0.7
2017-12-24T06:53:08.049Z,-0.7
2017-12-24T06:54:15.951Z,-0.7
2017-12-24T06:55:20.397Z,-0.7
2017-12-24T06:56:23.873Z,-0.7
2017-12-24T06:57:27.962Z,-0.7
2017-12-24T06:58:31.476Z,-0.7
2017-12-24T06:59:34.913Z,-0.7
2017-12-24T07:00:38.476Z,-0.7
2017-12-24T07:01:43.027Z,-0.7
2017-12-24T07:02:47.246Z,-0.7
2017-12-24T07:03:51.627Z,-0.7
2017-12-24T07:04:58.771Z,-0.7
2017-12-24T07:06:03.083Z,-0.6
2017-12-24T07:07:07.152Z,-0.7
2017-12-24T07:08:10.736Z,-0.7
2017-12-24T07:09:14.342Z,-0.8
2017-12-24T07:10:18.248Z,-0.8
2017-12-24T07:11:22.280Z,-0.8
2017-12-24T07:12:26.037Z,-0.8
2017-12-24T07:13:29.632Z,-0.8
2017-12-24T07:14:33.095Z,-0.8
2017-12-24T07:15:40.888Z,-0.8
2017-12-24T07:16:44.371Z,-0.7
2017-12-24T07:17:48.150Z,-0.7
2017-12-24T07:18:51.574Z,-0.8
2017-12-24T07:19:55.776Z,-0.8
2017-12-24T07:20:59.478Z,-0.8
2017-12-24T07:22:03.522Z,-0.8
2017-12-24T07:23:07.020Z,-0.8
2017-12-24T07:24:14.623Z,-0.8
2017-12-24T07:25:18.314Z,-0.8
2017-12-24T07:26:25.654Z,-0.8
2017-12-24T07:27:29.135Z,-0.8
2017-12-24T07:28:33.434Z,-0.8
2017-12-24T07:29:37.042Z,-0.8
2017-12-24T07:30:40.416Z,-0.8
2017-12-24T07:31:43.965Z,-0.8
2017-12-24T07:32:48.423Z,-0.8
2017-12-24T07:33:51.733Z,-0.8
2017-12-24T07:34:55.255Z,-0.8
2017-12-24T07:35:59.751Z,-0.8
2017-12-24T07:37:07.105Z,-0.7
2017-12-24T07:38:10.585Z,-0.7
2017-12-24T07:39:14.282Z,-0.7
2017-12-24T07:40:17.745Z,-0.7
2017-12-24T07:41:21.276Z,-0.8
2017-12-24T07:42:24.907Z,-0.7
2017-12-24T07:43:29.038Z,-0.7
2017-12-24T07:44:32.897Z,-0.7
2017-12-24T07:45:36.232Z,-0.7
2017-12-24T07:46:40.430Z,-0.8
2017-12-24T07:47:47.433Z,-0.8
2017-12-24T07:48:50.978Z,-0.8
2017-12-24T07:49:55.095Z,-0.8
2017-12-24T07:50:58.472Z,-0.7
2017-12-24T07:52:01.924Z,-0.7
2017-12-24T07:53:05.590Z,-0.6
2017-12-24T07:54:09.135Z,-0.5
2017-12-24T07:55:13.637Z,-0.4
2017-12-24T07:56:17.125Z,-0.3
2017-12-24T07:57:20.625Z,-0.3
2017-12-24T07:58:30.588Z,-0.2
2017-12-24T07:59:34.211Z,-0.1
2017-12-24T08:00:37.704Z,-0.1
2017-12-24T08:01:41.283Z,0
2017-12-24T08:02:44.692Z,0
2017-12-24T08:03:48.061Z,0
2017-12-24T08:04:52.082Z,0.1
2017-12-24T08:05:55.984Z,0.1
2017-12-24T08:07:01.648Z,0.1
2017-12-24T08:08:05.128Z,0.1
2017-12-24T08:09:12.290Z,0.2
2017-12-24T08:10:15.832Z,0.2
2017-12-24T08:11:19.262Z,0.2
2017-12-24T08:12:22.876Z,0.3
2017-12-24T08:13:27.168Z,0.3
2017-12-24T08:14:30.902Z,0.3
2017-12-24T08:15:35.218Z,0.3
2017-12-24T08:16:38.734Z,0.3
2017-12-24T08:17:42.219Z,0.3
2017-12-24T08:18:46.290Z,0.3
2017-12-24T08:19:53.345Z,0.4
2017-12-24T08:20:56.801Z,0.4
2017-12-24T08:22:00.518Z,0.4
2017-12-24T08:23:04.674Z,0.4
2017-12-24T08:24:08.096Z,0.4
2017-12-24T08:25:11.580Z,0.4
2017-12-24T08:26:15.015Z,0.4
2017-12-24T08:27:18.431Z,0.3
2017-12-24T08:28:22.890Z,0.3
2017-12-24T08:29:26.382Z,0.3
2017-12-24T08:30:34.602Z,0.4
2017-12-24T08:31:38.125Z,0.4
2017-12-24T08:32:43.754Z,0.4
2017-12-24T08:33:47.173Z,0.4
2017-12-24T08:34:50.993Z,0.4
2017-12-24T08:35:54.337Z,0.4
2017-12-24T08:36:58.491Z,0.5
2017-12-24T08:38:01.981Z,0.5
2017-12-24T08:39:05.661Z,0.5
2017-12-24T08:40:10.584Z,0.5
2017-12-24T08:41:18.847Z,0.6
2017-12-24T08:42:22.438Z,0.6
2017-12-24T08:43:26.073Z,0.7
2017-12-24T08:44:29.482Z,0.7
2017-12-24T08:45:33.175Z,0.7
2017-12-24T08:46:36.698Z,0.8
2017-12-24T08:47:40.110Z,0.8
2017-12-24T08:48:45.383Z,0.8
2017-12-24T08:49:48.813Z,0.9
2017-12-24T08:50:52.236Z,0.9
2017-12-24T08:52:00.017Z,0.9
2017-12-24T08:53:03.543Z,0.9
2017-12-24T08:54:07.062Z,0.9
2017-12-24T08:55:11.417Z,0.9
2017-12-24T08:56:15.989Z,1
2017-12-24T08:57:21.214Z,1
2017-12-24T08:58:26.905Z,1.1
2017-12-24T08:59:30.587Z,1.2
2017-12-24T09:00:34.154Z,1.3
2017-12-24T09:01:37.751Z,1.4
2017-12-24T09:02:45.504Z,1.4
2017-12-24T09:03:51.126Z,1.5
2017-12-24T09:04:56.334Z,1.6
2017-12-24T09:06:01.320Z,1.6
2017-12-24T09:07:08.268Z,1.7
2017-12-24T09:08:13.870Z,1.8
2017-12-24T09:09:19.508Z,1.9
2017-12-24T09:10:23.806Z,1.9
2017-12-24T09:11:33.560Z,2
2017-12-24T09:12:37.278Z,2
2017-12-24T09:13:46.132Z,2.1
2017-12-24T09:14:52.102Z,2.2
2017-12-24T09:16:00.491Z,2.2
2017-12-24T09:17:09.606Z,2.3
2017-12-24T09:18:15.539Z,2.3
2017-12-24T09:19:25.642Z,2.4
2017-12-24T09:20:31.675Z,2.4
2017-12-24T09:21:40.254Z,2.5
2017-12-24T09:22:45.051Z,2.5
2017-12-24T09:23:48.441Z,2.6
2017-12-24T09:24:57.485Z,2.7
2017-12-24T09:26:02.605Z,2.7
2017-12-24T09:27:06.652Z,2.8
2017-12-24T09:28:13.483Z,2.8
2017-12-24T09:29:19.326Z,2.8
2017-12-24T09:30:25.283Z,2.9
2017-12-24T09:31:29.318Z,3
2017-12-24T09:32:34.543Z,3
2017-12-24T09:33:38.068Z,2.6
2017-12-24T09:34:41.632Z,2.5
2017-12-24T09:35:49.564Z,2.4
2017-12-24T09:36:53.149Z,2.5
2017-12-24T09:37:56.508Z,2.5
2017-12-24T09:39:01.108Z,2.3
2017-12-24T09:40:04.959Z,2.3
2017-12-24T09:41:09.466Z,2.4
2017-12-24T09:42:13.720Z,2.3
2017-12-24T09:43:18.051Z,2.4
2017-12-24T09:44:22.308Z,2.2
2017-12-24T09:45:26.407Z,2.3
2017-12-24T09:46:36.660Z,2.3
2017-12-24T09:47:42.937Z,2
2017-12-24T09:48:51.451Z,2.2
2017-12-24T09:49:55.493Z,2.3
2017-12-24T09:51:01.086Z,2.5
2017-12-24T09:52:05.133Z,2.6
2017-12-24T09:53:11.898Z,2.8
2017-12-24T09:54:15.520Z,2.8
2017-12-24T09:55:20.323Z,2.8
2017-12-24T09:56:23.802Z,2.8
2017-12-24T09:57:33.540Z,2.8
2017-12-24T09:58:36.885Z,3
2017-12-24T09:59:40.385Z,2.9
2017-12-24T10:00:44.013Z,2.8
2017-12-24T10:01:47.714Z,2.9
2017-12-24T10:02:51.133Z,2.8
2017-12-24T10:03:55.227Z,2.9
2017-12-24T10:05:00.195Z,2.9
2017-12-24T10:06:03.743Z,3
2017-12-24T10:07:08.604Z,3.2
2017-12-24T10:08:16.701Z,3.2
2017-12-24T10:09:21.340Z,3.3
2017-12-24T10:10:25.542Z,3.3
2017-12-24T10:11:29.019Z,3.2
2017-12-24T10:12:33.020Z,3.2
2017-12-24T10:13:37.156Z,3.3
2017-12-24T10:14:40.504Z,3.4
2017-12-24T10:17:19.116Z,3.4
2017-12-24T10:18:25.087Z,3.6
2017-12-24T10:19:29.314Z,3.5
2017-12-24T10:20:40.262Z,3.4
2017-12-24T10:21:43.594Z,3.3
2017-12-24T10:22:46.900Z,3.4
2017-12-24T10:23:52.234Z,3.4
2017-12-24T10:24:57.539Z,3.2
2017-12-24T10:26:01.374Z,3.1
2017-12-24T10:27:05.776Z,2.9
2017-12-24T10:28:09.906Z,3
2017-12-24T10:29:13.869Z,3
2017-12-24T10:30:17.730Z,3.2
2017-12-24T10:31:26.682Z,3
2017-12-24T10:32:30.199Z,3.2
2017-12-24T10:33:39.076Z,3.4
2017-12-24T10:34:49.210Z,3.2
2017-12-24T10:35:55.815Z,3.1
2017-12-24T10:36:59.305Z,3.3
2017-12-24T10:38:05.034Z,3.4
2017-12-24T10:39:28.602Z,3.4
2017-12-24T10:40:32.683Z,3.5
2017-12-24T10:41:42.775Z,3.3
2017-12-24T10:42:50.535Z,3.4
2017-12-24T10:43:54.167Z,3.5
2017-12-24T10:44:58.137Z,3.6
2017-12-24T10:46:01.799Z,3.8
2017-12-24T10:47:05.438Z,3.9
2017-12-24T10:48:09.232Z,3.9
2017-12-24T10:49:12.929Z,3.9
2017-12-24T10:50:17.141Z,3.9
2017-12-24T10:51:21.401Z,4
2017-12-24T10:52:25.648Z,4
2017-12-24T10:53:35.464Z,4
2017-12-24T10:54:39.021Z,3.7
2017-12-24T10:55:43.800Z,3.5
2017-12-24T10:56:47.640Z,3.5
2017-12-24T10:57:52.331Z,3.6
2017-12-24T10:58:56.310Z,3.6
2017-12-24T10:59:59.771Z,3.8
2017-12-24T11:01:03.373Z,4
2017-12-24T11:02:09.314Z,4.1
2017-12-24T11:03:15.129Z,4
2017-12-24T11:04:26.058Z,4.1
2017-12-24T11:05:30.092Z,4.2
2017-12-24T11:06:36.428Z,4.1
2017-12-24T11:07:40.638Z,4.1
2017-12-24T11:08:44.401Z,4
2017-12-24T11:09:47.793Z,3.9
2017-12-24T11:10:51.891Z,4.1
2017-12-24T11:11:55.447Z,4.3
2017-12-24T11:13:00.456Z,4.3
2017-12-24T11:14:05.552Z,4.3
2017-12-24T11:15:13.473Z,4.4
2017-12-24T11:16:18.504Z,4.3
2017-12-24T11:17:22.432Z,4.2
2017-12-24T11:18:27.479Z,4.2
2017-12-24T11:19:35.445Z,4.4
2017-12-24T11:20:42.524Z,4.6
2017-12-24T11:21:46.757Z,4.7
2017-12-24T11:22:51.693Z,4.7
2017-12-24T11:23:54.942Z,4.7
2017-12-24T11:25:01.231Z,4.8
2017-12-24T11:26:11.128Z,4.8
2017-12-24T11:27:16.668Z,4.7
2017-12-24T11:28:21.998Z,4.8
2017-12-24T11:29:29.061Z,4.8
2017-12-24T11:30:33.867Z,4.8
2017-12-24T11:31:40.321Z,4.8
2017-12-24T11:32:44.748Z,4.8
2017-12-24T11:33:49.100Z,4.8
2017-12-24T11:34:52.540Z,4.8
2017-12-24T11:36:01.324Z,4.9
2017-12-24T11:37:11.766Z,4.9
2017-12-24T11:38:18.871Z,4.9
2017-12-24T11:39:31.084Z,4.9
2017-12-24T11:40:37.335Z,4.9
2017-12-24T11:41:48.226Z,4.9
2017-12-24T11:42:57.125Z,5
2017-12-24T11:44:04.020Z,5
2017-12-24T11:45:08.247Z,5
2017-12-24T11:46:13.763Z,5
2017-12-24T11:47:22.546Z,5
2017-12-24T11:48:36.997Z,5
2017-12-24T11:49:44.760Z,5
2017-12-24T11:50:51.744Z,5
2017-12-24T11:51:57.406Z,5
2017-12-24T11:53:02.754Z,5
2017-12-24T11:54:12.474Z,5
2017-12-24T11:55:18.554Z,5
2017-12-24T11:56:31.175Z,5
2017-12-24T11:57:37.801Z,5.1
2017-12-24T11:58:49.380Z,5
2017-12-24T12:00:00.108Z,5
2017-12-24T12:01:06.217Z,5.1
2017-12-24T12:02:16.878Z,5.1
2017-12-24T12:03:24.144Z,5.2
2017-12-24T12:04:31.669Z,5.2
2017-12-24T12:05:43.745Z,5.1
2017-12-24T12:06:56.518Z,5.2
2017-12-24T12:08:13.183Z,5.3
2017-12-24T12:09:24.370Z,5.3
2017-12-24T12:10:33.063Z,5.3
2017-12-24T12:11:42.826Z,5.5
2017-12-24T12:12:48.418Z,5.4
2017-12-24T12:13:54.087Z,5.3
2017-12-24T12:14:59.308Z,5.3
2017-12-24T12:16:02.841Z,5.3
2017-12-24T12:17:06.990Z,5.3
2017-12-24T12:18:11.010Z,5.4
2017-12-24T12:19:16.707Z,5.4
2017-12-24T12:20:23.967Z,5.4
2017-12-24T12:21:31.557Z,5.5
2017-12-24T12:22:39.818Z,5.5
2017-12-24T12:23:44.038Z,5.5
2017-12-24T12:24:49.028Z,5.5
2017-12-24T12:25:54.806Z,5.5
2017-12-24T12:27:00.221Z,5.5
2017-12-24T12:28:07.349Z,5.4
2017-12-24T12:29:15.875Z,5.5
2017-12-24T12:30:21.076Z,5.5
2017-12-24T12:31:25.906Z,5.4
2017-12-24T12:32:31.099Z,5.4
2017-12-24T12:33:40.508Z,5.4
2017-12-24T12:34:47.324Z,5.5
2017-12-24T12:35:55.869Z,5.6
2017-12-24T12:37:03.636Z,5.5
2017-12-24T12:38:11.913Z,5.6
2017-12-24T12:39:19.102Z,5.6
2017-12-24T12:40:29.402Z,5.6
2017-12-24T12:41:38.361Z,5.6
2017-12-24T12:42:46.513Z,5.6
2017-12-24T12:43:54.802Z,5.6
2017-12-24T12:45:09.548Z,5.6
2017-12-24T12:46:21.717Z,5.6
2017-12-24T12:47:34.118Z,5.6
2017-12-24T12:48:46.350Z,5.6
2017-12-24T12:49:55.485Z,5.7
2017-12-24T12:51:05.536Z,5.7
2017-12-24T12:52:17.033Z,5.7
2017-12-24T12:53:27.869Z,5.7
2017-12-24T12:54:37.455Z,5.7
2017-12-24T12:55:49.553Z,5.7
2017-12-24T12:57:00.491Z,5.7
2017-12-24T12:58:04.836Z,5.7
2017-12-24T12:59:08.840Z,5.7
2017-12-24T13:00:16.109Z,5.8
2017-12-24T13:01:23.942Z,5.8
2017-12-24T13:02:29.487Z,5.8
2017-12-24T13:03:32.988Z,5.7
2017-12-24T13:04:37.244Z,5.7
2017-12-24T13:05:42.774Z,5.7
2017-12-24T13:06:48.668Z,5.7
2017-12-24T13:08:02.992Z,5.7
2017-12-24T13:09:07.035Z,5.7
2017-12-24T13:10:14.096Z,5.8
2017-12-24T13:11:20.365Z,5.8
2017-12-24T13:12:26.063Z,5.8
2017-12-24T13:13:30.302Z,5.8
2017-12-24T13:14:38.581Z,5.8
2017-12-24T13:15:43.320Z,5.8
2017-12-24T13:16:51.725Z,5.8
2017-12-24T13:17:57.119Z,5.8
2017-12-24T13:19:08.501Z,5.8
2017-12-24T13:20:12.836Z,5.8
2017-12-24T13:21:20.494Z,5.9
2017-12-24T13:22:25.061Z,5.9
2017-12-24T13:23:29.190Z,5.9
2017-12-24T13:24:36.916Z,5.8
2017-12-24T13:25:42.625Z,5.8
2017-12-24T13:26:50.928Z,5.8
2017-12-24T13:27:58.988Z,5.8
2017-12-24T13:29:03.541Z,5.8
2017-12-24T13:30:12.254Z,5.8
2017-12-24T13:31:28.094Z,5.8
2017-12-24T13:32:32.717Z,5.8
2017-12-24T13:33:36.384Z,5.8
2017-12-24T13:34:40.891Z,5.8
2017-12-24T13:35:47.233Z,5.8
2017-12-24T13:36:55.107Z,5.8
2017-12-24T13:38:00.171Z,5.8
2017-12-24T13:39:05.385Z,5.8
2017-12-24T13:40:10.129Z,5.7
2017-12-24T13:41:21.049Z,5.8
2017-12-24T13:42:26.557Z,5.8
2017-12-24T13:43:32.278Z,5.8
2017-12-24T13:44:37.246Z,5.9
2017-12-24T13:45:47.404Z,5.9
2017-12-24T13:46:55.920Z,5.8
2017-12-24T13:48:01.782Z,5.8
2017-12-24T13:49:06.460Z,5.8
2017-12-24T13:50:15.423Z,5.9
2017-12-24T13:51:19.980Z,5.9
2017-12-24T13:52:29.431Z,5.9
2017-12-24T13:53:33.782Z,5.9
2017-12-24T13:54:41.099Z,5.9
2017-12-24T13:55:51.553Z,5.9
2017-12-24T13:56:56.958Z,5.9
2017-12-24T13:58:03.025Z,5.9
2017-12-24T13:59:09.186Z,5.9
2017-12-24T14:00:12.798Z,5.9
2017-12-24T14:01:18.055Z,5.9
2017-12-24T14:02:22.301Z,5.8
2017-12-24T14:03:31.510Z,5.8
2017-12-24T14:04:36.085Z,5.8
2017-12-24T14:05:40.737Z,5.8
2017-12-24T14:06:44.352Z,5.9
2017-12-24T14:07:49.488Z,5.8
2017-12-24T14:08:57.529Z,5.8
2017-12-24T14:10:02.035Z,5.8
2017-12-24T14:11:07.823Z,5.8
2017-12-24T14:12:15.454Z,5.8
2017-12-24T14:13:21.585Z,5.8
2017-12-24T14:14:30.120Z,5.8
2017-12-24T14:15:36.587Z,5.8
2017-12-24T14:16:41.022Z,5.7
2017-12-24T14:17:46.614Z,5.7
2017-12-24T14:18:50.748Z,5.7
2017-12-24T14:19:54.648Z,5.7
2017-12-24T14:20:59.637Z,5.7
2017-12-24T14:22:03.784Z,5.7
2017-12-24T14:23:07.912Z,5.6
2017-12-24T14:24:12.063Z,5.6
2017-12-24T14:25:20.738Z,5.6
2017-12-24T14:26:24.219Z,5.6
2017-12-24T14:27:29.935Z,5.6
2017-12-24T14:28:35.428Z,5.5
2017-12-24T14:29:41.430Z,5.5
2017-12-24T14:30:48.037Z,5.5
2017-12-24T14:31:54.867Z,5.5
2017-12-24T14:33:01.475Z,5.5
2017-12-24T14:34:06.488Z,5.5
2017-12-24T14:35:12.193Z,5.5
2017-12-24T14:36:18.622Z,5.4
2017-12-24T14:37:22.188Z,5.3
2017-12-24T14:38:25.720Z,5.3
2017-12-24T14:39:30.101Z,5.3
2017-12-24T14:40:34.144Z,5.4
2017-12-24T14:41:37.652Z,5.3
2017-12-24T14:42:41.232Z,5.3
2017-12-24T14:43:44.716Z,5.3
2017-12-24T14:44:48.386Z,5.2
2017-12-24T14:45:51.875Z,5.3
2017-12-24T14:46:59.173Z,5.3
2017-12-24T14:48:04.358Z,5.3
2017-12-24T14:49:08.619Z,5.3
2017-12-24T14:50:12.196Z,5.3
2017-12-24T14:51:15.695Z,5.3
2017-12-24T14:52:19.277Z,5.2